Comer, Georgia
Current Conditions -  °F | °C
As of 10:51 AM on Friday 21 Nov 2014 (Local Time) from KAHN Reporting Station
NA  
Wind Chill: 56°   Ceiling: NA
Heat Index: 56°   Visibility: 9mi
Dew Point: 27°   Wind: 3mph
Humidity: 33%   Direction: 310°NW
Pressure: 30.4"   Gusts: NA
Location:  34.06°N, 83.13°W
Report Text: KAHN 211551Z AUTO 31003KT 9SM 13/M03 A3040 RMK AO2 SLPNO T01331028 TSNO
Loading
Personal Weather Stations






























Interactive Weather Map New forecast layout! Learn more

10-Day Weather Forecast

Advertisements
Track Severe Weather on mobile